Time;durP1;ratioP1;P1;durP2;ratioP2;P2;SDS_P1;SDS_P2;PMS_P1;PMS_P2;Temp;Humidity;BMP_temperature;BMP_pressure;BME280_temperature;BME280_humidity;BME280_pressure;Samples;Min_cycle;Max_cycle;Signal;HPM_P1;HPM_P2
2022/11/01 00:01:56;;;;;;;17.27;11.13;;;15.80;99.90;;;;;;4986112;28;20406;-68
2022/11/01 00:04:22;;;;;;;16.93;11.40;;;15.90;99.90;;;;;;4960613;28;20439;-67
2022/11/01 00:06:48;;;;;;;13.67;10.10;;;15.90;99.90;;;;;;4960238;28;20281;-68
2022/11/01 00:09:14;;;;;;;12.93;10.47;;;15.80;99.90;;;;;;4960444;28;20220;-68
2022/11/01 00:11:39;;;;;;;17.03;9.70;;;15.80;99.90;;;;;;4967794;28;20444;-68
2022/11/01 00:14:06;;;;;;;14.90;10.43;;;15.80;99.90;;;;;;4961061;28;20507;-68
2022/11/01 00:16:32;;;;;;;17.40;11.03;;;15.80;99.90;;;;;;4963609;28;20214;-68
2022/11/01 00:18:57;;;;;;;14.10;10.50;;;15.90;99.90;;;;;;4963369;28;20446;-68
2022/11/01 00:21:23;;;;;;;12.33;9.57;;;15.80;99.90;;;;;;4987223;28;20574;-67
2022/11/01 00:23:48;;;;;;;14.13;9.90;;;15.80;99.90;;;;;;4968109;28;20244;-67
2022/11/01 00:26:20;;;;;;;17.80;10.60;;;15.80;99.90;;;;;;4966535;28;20183;-68
2022/11/01 00:28:47;;;;;;;12.87;9.57;;;15.80;99.90;;;;;;4978858;28;20186;-67
2022/11/01 00:31:13;;;;;;;15.90;10.97;;;15.80;99.90;;;;;;4961886;28;20461;-67
2022/11/01 00:33:39;;;;;;;12.37;11.03;;;15.80;99.90;;;;;;4963191;28;20919;-67
2022/11/01 00:36:06;;;;;;;11.67;10.20;;;15.80;99.90;;;;;;4957733;28;20472;-68
2022/11/01 00:38:32;;;;;;;12.60;10.23;;;15.70;99.90;;;;;;4980308;28;20924;-66
2022/11/01 00:40:58;;;;;;;15.20;10.63;;;15.80;99.90;;;;;;4962072;28;20506;-68
2022/11/01 00:43:24;;;;;;;18.80;11.63;;;15.80;99.90;;;;;;4961165;28;20423;-67
2022/11/01 00:45:50;;;;;;;20.00;10.90;;;15.80;99.90;;;;;;4998004;28;20203;-67
2022/11/01 00:48:16;;;;;;;18.00;11.50;;;15.90;99.90;;;;;;4958693;28;20209;-67
2022/11/01 00:50:42;;;;;;;13.30;11.67;;;15.80;99.90;;;;;;4972484;28;20454;-68
2022/11/01 00:53:10;;;;;;;15.00;11.87;;;15.80;99.90;;;;;;4965636;28;20221;-67
2022/11/01 00:55:36;;;;;;;18.20;12.97;;;15.70;99.90;;;;;;4960505;28;20179;-67
2022/11/01 00:58:02;;;;;;;24.33;12.97;;;15.60;99.90;;;;;;4967943;28;20438;-67
2022/11/01 01:00:27;;;;;;;16.87;12.17;;;15.70;99.90;;;;;;4963066;28;20209;-67
2022/11/01 01:02:53;;;;;;;14.20;11.20;;;15.60;99.90;;;;;;4963751;28;20677;-67
2022/11/01 01:05:19;;;;;;;14.53;12.40;;;15.70;99.90;;;;;;4963426;28;20556;-67
2022/11/01 01:07:45;;;;;;;14.53;11.57;;;15.70;99.90;;;;;;4972603;28;20189;-68
2022/11/01 01:10:10;;;;;;;17.67;11.77;;;15.70;99.90;;;;;;4976064;28;20207;-67
2022/11/01 01:12:36;;;;;;;14.60;11.50;;;15.70;99.90;;;;;;4964792;28;20236;-68
2022/11/01 01:15:02;;;;;;;14.17;10.70;;;15.70;99.90;;;;;;4964415;28;20190;-68
2022/11/01 01:17:27;;;;;;;12.30;11.00;;;15.70;99.90;;;;;;4974919;28;20571;-68
2022/11/01 01:19:53;;;;;;;15.67;11.00;;;15.70;99.90;;;;;;4959201;28;20453;-68
2022/11/01 01:22:18;;;;;;;18.73;10.07;;;15.70;99.90;;;;;;4963954;28;20257;-67
2022/11/01 01:24:46;;;;;;;13.10;9.80;;;15.70;99.90;;;;;;4972290;28;20552;-67
2022/11/01 01:27:16;;;;;;;13.10;9.60;;;15.70;99.90;;;;;;4976526;28;21221;-67
2022/11/01 01:29:43;;;;;;;15.90;9.07;;;15.70;99.90;;;;;;4965082;28;20473;-67
2022/11/01 01:32:15;;;;;;;10.70;9.10;;;15.60;99.90;;;;;;4961443;28;20430;-67
2022/11/01 01:34:40;;;;;;;13.03;9.73;;;15.60;99.90;;;;;;4965483;28;20441;-67
2022/11/01 01:37:07;;;;;;;12.83;9.30;;;15.70;99.90;;;;;;4957691;28;20469;-67
2022/11/01 01:39:32;;;;;;;13.20;10.10;;;15.70;99.90;;;;;;4962939;28;20187;-67
2022/11/01 01:42:00;;;;;;;12.03;9.67;;;15.60;99.90;;;;;;4953175;28;20443;-68
2022/11/01 01:44:50;;;;;;;12.53;9.03;;;15.60;99.90;;;;;;4983404;28;20182;-67
2022/11/01 01:47:37;;;;;;;15.40;9.30;;;15.60;99.90;;;;;;4963192;28;20414;-68
2022/11/01 01:50:13;;;;;;;12.43;9.10;;;15.60;99.90;;;;;;4967261;28;20476;-68
2022/11/01 01:52:54;;;;;;;16.23;9.63;;;15.60;99.90;;;;;;4993139;28;20436;-68
2022/11/01 01:55:35;;;;;;;13.03;8.93;;;15.60;99.90;;;;;;4983158;28;20959;-68
2022/11/01 01:58:02;;;;;;;13.13;9.67;;;15.60;99.90;;;;;;4968477;28;20977;-68
2022/11/01 02:00:27;;;;;;;23.33;9.77;;;15.60;99.90;;;;;;4972685;28;20445;-68
2022/11/01 02:02:53;;;;;;;11.97;9.50;;;15.60;99.90;;;;;;4976563;28;20438;-68
2022/11/01 02:05:28;;;;;;;11.53;9.80;;;15.60;99.90;;;;;;4963224;28;20220;-68
2022/11/01 02:07:55;;;;;;;11.50;9.90;;;15.60;99.90;;;;;;4989235;28;20213;-68
2022/11/01 02:10:21;;;;;;;13.87;9.73;;;15.70;99.90;;;;;;5007221;28;20876;-68
2022/11/01 02:12:48;;;;;;;13.50;9.80;;;15.70;99.90;;;;;;4982008;28;20438;-67
2022/11/01 02:15:16;;;;;;;10.77;8.70;;;15.70;99.90;;;;;;5003087;28;20441;-67
2022/11/01 02:18:01;;;;;;;13.53;10.30;;;15.70;99.90;;;;;;5006112;28;20500;-67
2022/11/01 02:21:24;;;;;;;11.07;8.67;;;15.70;99.90;;;;;;5001488;28;20457;-67
2022/11/01 02:24:08;;;;;;;12.50;9.80;;;15.70;99.90;;;;;;5022413;28;20963;-67
2022/11/01 02:26:48;;;;;;;12.50;9.20;;;15.70;99.90;;;;;;5022891;28;20494;-67
2022/11/01 02:29:50;;;;;;;11.53;8.80;;;15.80;99.90;;;;;;5007042;28;20445;-67
2022/11/01 02:32:21;;;;;;;15.07;9.40;;;15.80;99.90;;;;;;5010309;28;20413;-67
2022/11/01 02:35:08;;;;;;;14.43;9.40;;;15.70;99.90;;;;;;5002242;28;20410;-67
2022/11/01 02:37:50;;;;;;;13.93;10.17;;;15.70;99.90;;;;;;4996700;28;21055;-67
2022/11/01 02:40:47;;;;;;;12.60;8.97;;;15.70;99.90;;;;;;5008091;28;20449;-67
2022/11/01 02:43:20;;;;;;;11.80;9.40;;;15.70;99.90;;;;;;4995853;28;20471;-67
2022/11/01 02:45:49;;;;;;;13.87;9.77;;;15.70;99.90;;;;;;4972035;28;20446;-67
2022/11/01 02:48:19;;;;;;;15.13;10.57;;;15.70;99.90;;;;;;4994076;28;20480;-68
2022/11/01 02:50:49;;;;;;;14.30;10.13;;;15.80;99.90;;;;;;4979499;28;20458;-67
2022/11/01 02:53:15;;;;;;;12.20;10.10;;;15.80;99.90;;;;;;4990620;28;20485;-68
2022/11/01 02:55:40;;;;;;;13.90;10.03;;;15.80;99.90;;;;;;4984670;28;20859;-67
2022/11/01 02:58:21;;;;;;;10.70;9.60;;;15.80;99.90;;;;;;5000876;28;20589;-67
2022/11/01 03:00:46;;;;;;;18.13;11.20;;;15.80;99.90;;;;;;4988063;28;20201;-67
2022/11/01 03:03:19;;;;;;;12.20;9.90;;;15.80;99.90;;;;;;4987258;28;20448;-67
2022/11/01 03:06:04;;;;;;;11.57;9.17;;;15.90;99.90;;;;;;5002782;28;20670;-67
2022/11/01 03:08:41;;;;;;;14.93;11.10;;;15.90;99.90;;;;;;4987004;28;20794;-68
2022/11/01 03:11:15;;;;;;;12.27;10.17;;;15.80;99.90;;;;;;5003883;28;20534;-68
2022/11/01 03:14:02;;;;;;;13.50;10.50;;;15.80;99.90;;;;;;4974062;28;20434;-68
2022/11/01 03:16:28;;;;;;;21.53;10.10;;;15.90;99.90;;;;;;4994684;28;20461;-69
2022/11/01 03:19:15;;;;;;;13.20;10.07;;;15.90;99.90;;;;;;4996610;28;20441;-68
2022/11/01 03:21:48;;;;;;;13.17;10.20;;;15.80;99.90;;;;;;4985956;28;20462;-67
2022/11/01 03:24:28;;;;;;;15.40;10.80;;;15.90;99.90;;;;;;5009975;28;20436;-68
2022/11/01 03:27:22;;;;;;;15.10;10.83;;;15.90;99.90;;;;;;5010159;28;20421;-68
2022/11/01 03:29:57;;;;;;;15.07;10.03;;;15.80;99.90;;;;;;4979744;28;20466;-68
2022/11/01 03:32:34;;;;;;;20.43;10.53;;;15.90;99.90;;;;;;5000229;28;20435;-68
2022/11/01 03:35:02;;;;;;;13.70;10.33;;;15.90;99.90;;;;;;4967607;28;20452;-68
2022/11/01 03:37:31;;;;;;;16.60;10.70;;;15.90;99.90;;;;;;4960713;28;22184;-68
2022/11/01 03:40:01;;;;;;;16.40;11.53;;;15.90;99.90;;;;;;4962749;28;21006;-68
2022/11/01 03:42:28;;;;;;;12.30;10.60;;;15.90;99.90;;;;;;4976975;28;20526;-68
2022/11/01 03:45:01;;;;;;;16.80;11.33;;;15.80;99.90;;;;;;4982933;28;20435;-68
2022/11/01 03:47:28;;;;;;;14.90;11.13;;;15.70;99.90;;;;;;4966860;28;20788;-69
2022/11/01 03:50:17;;;;;;;15.57;11.17;;;15.70;99.90;;;;;;4983564;28;21240;-68
2022/11/01 03:52:43;;;;;;;13.30;11.37;;;15.70;99.90;;;;;;4997840;28;20457;-69
2022/11/01 03:55:18;;;;;;;17.77;12.13;;;15.70;99.90;;;;;;4979912;28;20450;-68
2022/11/01 03:57:52;;;;;;;16.33;10.17;;;15.70;99.90;;;;;;4966014;28;20272;-69
2022/11/01 04:00:20;;;;;;;14.83;10.60;;;15.80;99.90;;;;;;4985008;28;20470;-67
2022/11/01 04:02:47;;;;;;;15.50;11.37;;;15.80;99.90;;;;;;4984880;28;20960;-68
2022/11/01 04:05:13;;;;;;;14.30;10.70;;;15.80;99.90;;;;;;4994915;28;20464;-68
2022/11/01 04:07:39;;;;;;;15.90;11.63;;;15.80;99.90;;;;;;4985025;28;20482;-67
2022/11/01 04:10:05;;;;;;;14.20;11.00;;;15.70;99.90;;;;;;4986668;28;20211;-67
2022/11/01 04:12:31;;;;;;;19.47;10.57;;;15.70;99.90;;;;;;5009816;28;20186;-68
2022/11/01 04:20:35;;;;;;;18.67;11.00;;;15.70;99.90;;;;;;4976614;28;20449;-67
2022/11/01 04:23:06;;;;;;;18.47;10.63;;;15.70;99.90;;;;;;4994308;28;20749;-68
2022/11/01 04:25:33;;;;;;;14.17;10.90;;;15.60;99.90;;;;;;4960709;28;20443;-68
2022/11/01 04:27:59;;;;;;;19.27;13.03;;;15.50;99.90;;;;;;5000054;28;20420;-68
2022/11/01 04:30:26;;;;;;;15.00;12.17;;;15.50;99.90;;;;;;4986778;28;20454;-68
2022/11/01 04:32:52;;;;;;;18.60;11.77;;;15.60;99.90;;;;;;4978912;28;20226;-68
2022/11/01 04:35:18;;;;;;;14.10;11.43;;;15.60;99.90;;;;;;4995798;28;20469;-68
2022/11/01 04:37:43;;;;;;;15.77;11.83;;;15.50;99.90;;;;;;4992758;28;20680;-68
2022/11/01 04:40:10;;;;;;;16.87;11.97;;;15.50;99.90;;;;;;4986836;28;20464;-68
2022/11/01 04:42:36;;;;;;;18.27;11.27;;;15.50;99.90;;;;;;4985698;28;20187;-68
2022/11/01 04:45:03;;;;;;;15.50;10.87;;;15.50;99.90;;;;;;4991700;28;20473;-68
2022/11/01 04:47:29;;;;;;;12.57;10.97;;;15.50;99.90;;;;;;4960145;28;20446;-69
2022/11/01 04:49:55;;;;;;;19.60;10.17;;;15.50;99.90;;;;;;4980946;28;20557;-69
2022/11/01 04:52:20;;;;;;;17.57;12.27;;;15.50;99.90;;;;;;4973345;28;20205;-68
2022/11/01 04:54:46;;;;;;;13.10;11.10;;;15.50;99.90;;;;;;4983111;28;20199;-67
2022/11/01 04:57:21;;;;;;;17.57;11.57;;;15.50;99.90;;;;;;4995882;28;20304;-67
2022/11/01 04:59:51;;;;;;;14.10;10.53;;;15.60;99.90;;;;;;4972274;28;20197;-68
2022/11/01 05:02:17;;;;;;;12.87;10.43;;;15.70;99.90;;;;;;4985433;28;20442;-67
2022/11/01 05:04:43;;;;;;;15.93;10.67;;;15.60;99.90;;;;;;5009769;28;21125;-67
2022/11/01 05:07:09;;;;;;;17.20;10.70;;;15.70;99.90;;;;;;4978935;28;20502;-67
2022/11/01 05:09:34;;;;;;;13.27;10.13;;;15.70;99.90;;;;;;4979652;28;20454;-69
2022/11/01 05:12:00;;;;;;;18.97;10.20;;;15.70;99.90;;;;;;5003745;28;20229;-68
2022/11/01 05:14:25;;;;;;;12.87;10.23;;;15.70;99.90;;;;;;4992357;28;20237;-68
2022/11/01 05:16:54;;;;;;;16.53;9.10;;;15.70;99.90;;;;;;4996071;28;20218;-67
2022/11/01 05:19:20;;;;;;;15.43;11.07;;;15.70;99.90;;;;;;4973360;28;20195;-67
2022/11/01 05:21:46;;;;;;;14.40;9.83;;;15.70;99.90;;;;;;4998250;28;20437;-68
2022/11/01 05:24:11;;;;;;;14.70;9.87;;;15.70;99.90;;;;;;5010788;28;20205;-68
2022/11/01 05:26:37;;;;;;;14.73;9.40;;;15.60;99.90;;;;;;5002660;28;20187;-67
2022/11/01 05:29:02;;;;;;;10.87;8.60;;;15.60;99.90;;;;;;4973129;28;20252;-67
2022/11/01 05:31:28;;;;;;;10.13;6.90;;;15.70;99.90;;;;;;4978157;28;20217;-67
2022/11/01 05:33:53;;;;;;;13.90;8.73;;;15.70;99.90;;;;;;4974856;28;20606;-68
2022/11/01 05:36:19;;;;;;;12.40;7.40;;;15.70;99.90;;;;;;4986678;28;20218;-68
2022/11/01 05:38:44;;;;;;;10.80;6.50;;;15.70;99.90;;;;;;4975000;28;20197;-68
2022/11/01 05:41:10;;;;;;;8.13;6.53;;;15.70;99.90;;;;;;4964243;28;20198;-69
2022/11/01 05:43:35;;;;;;;8.50;6.70;;;15.70;99.90;;;;;;4973142;28;20205;-68
2022/11/01 05:46:05;;;;;;;10.93;6.00;;;15.80;99.90;;;;;;4960658;28;20246;-68
2022/11/01 05:48:31;;;;;;;8.97;5.30;;;15.90;99.90;;;;;;4970854;28;20186;-68
2022/11/01 05:50:57;;;;;;;8.43;5.03;;;15.90;99.90;;;;;;4963755;28;20458;-68
2022/11/01 05:53:22;;;;;;;7.13;4.77;;;15.90;99.90;;;;;;5006829;28;20486;-68
2022/11/01 05:55:48;;;;;;;6.80;4.67;;;16.00;99.90;;;;;;4992591;28;20843;-68
2022/11/01 05:58:14;;;;;;;7.17;4.97;;;15.90;99.90;;;;;;4997979;28;20607;-67
2022/11/01 06:00:39;;;;;;;7.30;4.53;;;15.90;99.90;;;;;;4977745;28;20747;-67
2022/11/01 06:03:06;;;;;;;6.43;4.80;;;16.00;99.90;;;;;;4969013;28;20259;-67
2022/11/01 06:05:32;;;;;;;5.07;3.73;;;16.00;99.90;;;;;;4986718;28;20236;-68
2022/11/01 06:08:00;;;;;;;8.17;4.60;;;15.90;99.90;;;;;;4992101;28;20472;-67
2022/11/01 06:10:27;;;;;;;5.13;3.70;;;16.00;99.90;;;;;;5001945;28;20523;-68
2022/11/01 06:12:53;;;;;;;4.90;3.53;;;16.00;99.90;;;;;;4980165;28;20457;-68
2022/11/01 06:15:19;;;;;;;6.10;3.73;;;16.10;99.90;;;;;;5004658;28;20451;-68
2022/11/01 06:17:44;;;;;;;6.80;4.43;;;16.10;99.90;;;;;;5015548;28;20473;-67
2022/11/01 06:20:10;;;;;;;8.37;3.13;;;16.10;99.90;;;;;;4991855;28;20214;-67
2022/11/01 06:22:36;;;;;;;4.53;3.27;;;16.20;99.90;;;;;;4983094;28;20185;-68
2022/11/01 06:25:03;;;;;;;4.77;3.20;;;16.20;99.90;;;;;;4993521;28;20440;-68
2022/11/01 06:27:28;;;;;;;6.43;3.67;;;16.20;99.90;;;;;;4991301;28;20481;-68
2022/11/01 06:29:54;;;;;;;4.73;3.27;;;16.30;99.90;;;;;;4978667;28;20501;-67
2022/11/01 06:32:19;;;;;;;4.33;3.50;;;16.30;99.90;;;;;;5000128;28;20203;-67
2022/11/01 06:34:45;;;;;;;5.90;3.07;;;16.40;99.90;;;;;;4983898;28;20199;-67
2022/11/01 06:37:11;;;;;;;4.47;2.63;;;16.50;99.90;;;;;;4977857;28;20230;-66
2022/11/01 06:39:36;;;;;;;3.60;2.67;;;16.50;99.90;;;;;;4978032;28;20202;-67
2022/11/01 06:42:02;;;;;;;6.03;2.43;;;16.50;99.90;;;;;;4983741;28;20241;-68
2022/11/01 06:44:27;;;;;;;4.20;2.33;;;16.60;99.90;;;;;;4989300;28;20201;-67
2022/11/01 06:46:53;;;;;;;4.30;2.40;;;16.70;99.90;;;;;;4978689;28;20206;-69
2022/11/01 06:49:20;;;;;;;3.17;2.37;;;16.70;99.90;;;;;;4978959;28;20185;-67
2022/11/01 06:51:46;;;;;;;3.80;2.60;;;16.80;99.90;;;;;;4976786;28;20454;-67
2022/11/01 06:54:11;;;;;;;3.43;2.20;;;16.80;99.90;;;;;;4995397;28;20823;-67
2022/11/01 06:56:37;;;;;;;3.80;2.20;;;16.80;99.90;;;;;;4992252;28;20468;-67
2022/11/01 06:59:03;;;;;;;4.70;2.33;;;16.80;99.90;;;;;;5013397;28;20612;-67
2022/11/01 07:01:28;;;;;;;4.37;2.23;;;16.80;99.90;;;;;;4966743;28;20191;-67
2022/11/01 07:03:54;;;;;;;3.90;2.10;;;16.80;99.90;;;;;;4984522;28;20201;-68
2022/11/01 07:06:20;;;;;;;4.20;2.20;;;16.80;99.90;;;;;;4984287;28;20182;-67
2022/11/01 07:08:46;;;;;;;4.90;3.27;;;16.80;99.90;;;;;;4997692;28;20186;-67
2022/11/01 07:11:11;;;;;;;4.83;2.47;;;16.80;99.90;;;;;;4998882;28;20848;-67
2022/11/01 07:13:37;;;;;;;3.60;2.10;;;16.80;99.90;;;;;;4992132;28;20652;-67
2022/11/01 07:16:04;;;;;;;2.60;1.90;;;16.90;99.90;;;;;;4988135;28;20209;-68
2022/11/01 07:18:30;;;;;;;2.40;2.10;;;16.90;99.90;;;;;;4985407;28;20186;-66
2022/11/01 07:20:56;;;;;;;4.63;2.30;;;16.90;99.90;;;;;;4985092;28;20823;-67
2022/11/01 07:23:22;;;;;;;3.00;2.37;;;16.90;99.90;;;;;;4994938;28;20437;-67
2022/11/01 07:25:51;;;;;;;6.80;2.77;;;16.90;99.90;;;;;;4998828;28;20674;-67
2022/11/01 07:28:17;;;;;;;3.30;2.00;;;17.00;99.90;;;;;;4997989;28;20434;-67
2022/11/01 07:30:46;;;;;;;3.90;2.27;;;17.00;99.90;;;;;;4985913;28;23024;-69
2022/11/01 07:33:12;;;;;;;2.60;2.10;;;17.00;99.90;;;;;;4984649;28;20218;-68
2022/11/01 07:35:38;;;;;;;2.00;1.70;;;17.00;99.90;;;;;;4981012;28;20826;-68
2022/11/01 07:38:03;;;;;;;4.43;1.87;;;17.00;99.90;;;;;;4989320;28;20473;-69
2022/11/01 07:40:29;;;;;;;5.53;2.30;;;17.00;99.90;;;;;;4978351;28;20846;-69
2022/11/01 07:42:57;;;;;;;2.43;2.03;;;17.00;99.90;;;;;;4974791;28;20711;-69
2022/11/01 07:45:23;;;;;;;3.00;1.80;;;17.00;99.90;;;;;;4979280;28;20585;-69
2022/11/01 07:47:49;;;;;;;7.50;2.17;;;17.00;99.90;;;;;;4984099;28;20894;-68
2022/11/01 07:50:15;;;;;;;6.27;2.13;;;17.00;99.90;;;;;;4973661;28;20477;-67
2022/11/01 07:52:40;;;;;;;2.83;1.77;;;17.00;99.90;;;;;;4973651;28;20675;-67
2022/11/01 07:55:07;;;;;;;3.27;2.13;;;17.00;99.90;;;;;;5000762;28;20187;-68
2022/11/01 07:57:40;;;;;;;3.77;1.70;;;17.00;99.90;;;;;;4986987;28;20256;-68
2022/11/01 08:00:08;;;;;;;3.40;2.00;;;17.00;99.90;;;;;;4997404;28;20465;-67
2022/11/01 08:02:33;;;;;;;2.67;1.90;;;17.00;99.90;;;;;;4981645;28;20835;-67
2022/11/01 08:04:59;;;;;;;3.23;1.97;;;17.00;99.90;;;;;;4990145;28;20583;-68
2022/11/01 08:07:24;;;;;;;3.40;1.77;;;17.10;99.90;;;;;;4991315;28;20194;-70
2022/11/01 08:09:50;;;;;;;2.53;1.90;;;17.10;99.90;;;;;;4987770;28;20337;-70
2022/11/01 08:12:15;;;;;;;2.63;2.07;;;17.10;99.90;;;;;;4969148;28;20187;-69
2022/11/01 08:14:41;;;;;;;2.70;2.10;;;17.20;99.90;;;;;;4978045;28;20288;-69
2022/11/01 08:17:07;;;;;;;4.37;1.93;;;17.30;99.90;;;;;;4973865;28;20227;-69
2022/11/01 08:19:33;;;;;;;4.60;1.87;;;17.30;99.90;;;;;;4984801;28;20190;-69
2022/11/01 08:21:59;;;;;;;2.97;1.80;;;17.30;99.90;;;;;;4999758;28;21138;-69
2022/11/01 08:24:26;;;;;;;3.27;1.60;;;17.20;99.90;;;;;;4999360;28;20195;-67
2022/11/01 08:26:52;;;;;;;1.97;1.53;;;17.30;99.90;;;;;;4987835;28;20560;-68
2022/11/01 08:29:18;;;;;;;4.57;1.93;;;17.40;99.90;;;;;;4984504;28;20457;-67
2022/11/01 08:31:44;;;;;;;3.93;2.07;;;17.40;99.90;;;;;;4978928;28;20473;-67
2022/11/01 08:34:10;;;;;;;3.33;1.87;;;17.40;99.90;;;;;;4990664;28;20190;-69
2022/11/01 08:36:35;;;;;;;3.10;1.50;;;17.40;99.90;;;;;;4984820;28;20214;-69
2022/11/01 08:39:01;;;;;;;2.50;1.60;;;17.50;99.90;;;;;;5016007;28;20595;-69
2022/11/01 08:41:29;;;;;;;3.60;1.70;;;17.50;99.90;;;;;;5017243;28;20210;-68
2022/11/01 08:43:56;;;;;;;2.37;1.50;;;17.40;99.90;;;;;;4982788;28;20190;-68
2022/11/01 08:46:22;;;;;;;3.57;1.90;;;17.40;99.90;;;;;;4995445;28;20446;-68
2022/11/01 08:48:51;;;;;;;4.83;2.40;;;17.40;99.90;;;;;;4999708;28;20432;-70
2022/11/01 08:51:23;;;;;;;3.40;1.80;;;17.40;99.90;;;;;;4990078;28;20206;-68
2022/11/01 08:53:49;;;;;;;3.87;2.00;;;17.40;99.90;;;;;;4980052;28;20461;-68
2022/11/01 08:56:14;;;;;;;2.87;1.83;;;17.50;99.90;;;;;;4989269;28;20920;-69
2022/11/01 08:58:40;;;;;;;3.60;2.00;;;17.50;99.90;;;;;;5001989;28;20281;-68
2022/11/01 09:01:05;;;;;;;3.67;1.90;;;17.50;99.90;;;;;;4985655;28;20241;-68
2022/11/01 09:03:31;;;;;;;2.87;1.67;;;17.60;99.90;;;;;;4987089;28;20227;-69
2022/11/01 09:05:57;;;;;;;3.27;1.83;;;17.60;99.90;;;;;;4968193;28;20280;-68
2022/11/01 09:08:22;;;;;;;3.30;1.67;;;17.60;99.90;;;;;;4989935;28;20190;-69
2022/11/01 09:10:48;;;;;;;4.40;1.90;;;17.60;99.90;;;;;;4987767;28;20662;-69
2022/11/01 09:13:13;;;;;;;3.70;1.90;;;17.70;99.90;;;;;;4992636;28;20190;-68
2022/11/01 09:15:39;;;;;;;4.03;2.00;;;17.70;99.90;;;;;;4976206;28;20199;-67
2022/11/01 09:18:06;;;;;;;2.30;1.80;;;17.80;99.90;;;;;;4969597;28;20222;-68
2022/11/01 09:20:31;;;;;;;2.90;1.83;;;17.80;99.90;;;;;;4974866;28;20211;-67
2022/11/01 09:22:57;;;;;;;2.60;1.80;;;17.90;99.90;;;;;;4973935;28;20481;-67
2022/11/01 09:25:23;;;;;;;3.13;2.40;;;17.90;99.90;;;;;;4978005;28;20191;-69
2022/11/01 09:27:49;;;;;;;5.63;1.97;;;17.90;99.90;;;;;;4995023;28;20632;-69
2022/11/01 09:30:14;;;;;;;2.63;2.10;;;18.00;99.90;;;;;;4978183;28;20477;-68
2022/11/01 09:32:40;;;;;;;2.40;1.80;;;18.00;99.90;;;;;;4986720;28;20198;-68
2022/11/01 09:35:06;;;;;;;2.97;2.00;;;18.00;99.90;;;;;;4979273;28;20305;-68
2022/11/01 09:37:32;;;;;;;2.50;1.93;;;18.00;99.90;;;;;;4973074;28;20210;-67
2022/11/01 09:39:57;;;;;;;3.87;1.70;;;18.00;99.90;;;;;;4973441;28;20472;-67
2022/11/01 09:42:31;;;;;;;2.73;1.70;;;18.10;99.90;;;;;;4983607;28;20213;-68
2022/11/01 09:45:02;;;;;;;6.07;2.07;;;18.20;99.90;;;;;;4986551;28;20602;-68
2022/11/01 09:47:29;;;;;;;2.97;2.20;;;18.20;99.90;;;;;;4979762;28;20827;-68
2022/11/01 09:50:13;;;;;;;8.13;2.27;;;18.20;99.90;;;;;;4985761;28;20467;-69
2022/11/01 09:52:40;;;;;;;4.83;2.40;;;18.10;99.90;;;;;;4973475;28;20544;-68
2022/11/01 09:55:13;;;;;;;3.70;2.30;;;17.90;99.90;;;;;;5004084;28;20528;-70
2022/11/01 09:57:56;;;;;;;5.40;2.20;;;17.90;99.90;;;;;;4971933;28;20589;-69
2022/11/01 10:00:22;;;;;;;3.83;2.30;;;17.80;99.90;;;;;;4984385;28;20468;-69
2022/11/01 10:03:07;;;;;;;3.83;2.83;;;17.70;99.90;;;;;;4979946;28;20433;-68
2022/11/01 10:05:43;;;;;;;3.10;2.07;;;17.70;99.90;;;;;;4983738;28;20430;-68
2022/11/01 10:08:16;;;;;;;3.43;2.00;;;17.80;99.90;;;;;;4987044;28;20556;-68
2022/11/01 10:11:00;;;;;;;6.67;2.37;;;17.80;99.90;;;;;;4976187;28;20538;-68
2022/11/01 10:14:01;;;;;;;7.00;2.77;;;17.70;99.90;;;;;;4985039;28;20629;-68
2022/11/01 10:16:37;;;;;;;6.50;2.47;;;17.70;99.90;;;;;;4995056;28;20461;-68
2022/11/01 10:19:04;;;;;;;3.80;2.30;;;17.70;99.90;;;;;;4967110;28;20592;-68
2022/11/01 10:21:47;;;;;;;4.87;2.13;;;17.70;99.90;;;;;;4964446;28;20950;-68
2022/11/01 10:24:39;;;;;;;5.97;2.20;;;17.70;99.90;;;;;;4976370;28;20467;-68
2022/11/01 10:27:17;;;;;;;7.77;2.20;;;17.80;99.90;;;;;;4981708;28;20439;-68
2022/11/01 10:29:49;;;;;;;6.80;2.37;;;18.00;99.90;;;;;;4998988;28;20475;-67
2022/11/01 10:32:27;;;;;;;4.83;2.43;;;18.00;99.90;;;;;;4986288;28;20451;-68
2022/11/01 10:34:57;;;;;;;4.63;2.23;;;17.80;99.90;;;;;;4994068;28;20437;-67
2022/11/01 10:37:27;;;;;;;4.33;2.50;;;17.80;99.90;;;;;;4995415;28;20569;-68
2022/11/01 10:39:58;;;;;;;3.33;1.90;;;17.80;99.90;;;;;;4988201;28;20980;-68
2022/11/01 10:42:27;;;;;;;5.40;2.70;;;17.60;99.90;;;;;;5012553;28;20449;-67
2022/11/01 10:45:00;;;;;;;5.27;2.20;;;17.60;99.90;;;;;;4992907;28;20426;-67
2022/11/01 10:47:27;;;;;;;6.73;2.13;;;17.60;99.90;;;;;;5004174;28;20433;-67
2022/11/01 10:50:13;;;;;;;5.00;1.87;;;17.60;99.90;;;;;;4991780;28;20461;-69
2022/11/01 10:53:01;;;;;;;3.93;2.33;;;17.40;99.90;;;;;;4986098;28;20487;-69
2022/11/01 10:55:51;;;;;;;6.30;2.20;;;17.30;99.90;;;;;;4993042;28;20449;-67
2022/11/01 10:58:33;;;;;;;5.10;2.37;;;17.40;99.90;;;;;;4983821;28;20493;-67
2022/11/01 11:01:01;;;;;;;5.43;1.93;;;17.30;99.90;;;;;;4973067;28;20458;-67
2022/11/01 11:03:32;;;;;;;3.73;2.17;;;17.30;99.90;;;;;;4976295;28;20438;-67
2022/11/01 11:06:05;;;;;;;5.57;2.33;;;17.10;99.90;;;;;;4971494;28;20645;-68
2022/11/01 11:08:32;;;;;;;6.07;2.00;;;17.20;99.90;;;;;;4992976;28;20456;-67
2022/11/01 11:11:02;;;;;;;4.30;1.83;;;17.20;99.90;;;;;;4977208;28;20991;-67
2022/11/01 11:13:29;;;;;;;6.50;2.60;;;17.20;99.90;;;;;;4974545;28;22628;-68
2022/11/01 11:16:01;;;;;;;4.97;1.70;;;17.30;99.90;;;;;;4992311;28;20492;-68
2022/11/01 11:18:30;;;;;;;8.30;2.17;;;17.40;99.90;;;;;;4980319;28;20448;-68
2022/11/01 11:20:59;;;;;;;5.13;2.00;;;17.40;99.90;;;;;;4997989;28;20925;-69
2022/11/01 11:23:28;;;;;;;2.73;1.53;;;17.50;99.90;;;;;;4995147;28;20435;-68
2022/11/01 11:26:00;;;;;;;4.97;2.47;;;17.50;99.90;;;;;;4991769;28;20954;-68
2022/11/01 11:28:30;;;;;;;3.97;1.67;;;17.70;99.90;;;;;;4986440;28;20908;-68
2022/11/01 11:31:10;;;;;;;6.17;2.33;;;17.70;99.90;;;;;;4993893;28;20497;-69
2022/11/01 11:33:35;;;;;;;6.43;2.13;;;17.60;99.90;;;;;;4983117;28;20441;-67
2022/11/01 11:36:02;;;;;;;7.10;2.10;;;17.50;99.90;;;;;;4975043;28;20914;-67
2022/11/01 11:38:42;;;;;;;9.53;2.60;;;17.60;99.90;;;;;;4979930;28;20196;-68
2022/11/01 11:41:24;;;;;;;9.33;2.20;;;17.70;99.90;;;;;;4970288;28;20569;-69
2022/11/01 11:43:49;;;;;;;4.43;1.80;;;18.00;99.90;;;;;;4977640;28;21077;-68
2022/11/01 11:46:22;;;;;;;4.50;1.80;;;18.40;99.90;;;;;;4981472;28;20447;-68
2022/11/01 11:49:03;;;;;;;7.50;2.40;;;18.80;99.90;;;;;;4992228;28;20221;-68
2022/11/01 11:51:31;;;;;;;7.87;2.33;;;19.10;99.90;;;;;;4979059;28;20470;-68
2022/11/01 11:54:18;;;;;;;4.40;2.00;;;18.70;99.90;;;;;;4981580;28;20445;-68
2022/11/01 11:56:45;;;;;;;8.83;1.70;;;18.80;99.90;;;;;;4983859;28;20470;-68
2022/11/01 11:59:27;;;;;;;3.07;1.47;;;18.80;99.90;;;;;;4991410;28;20931;-68
2022/11/01 12:01:58;;;;;;;4.33;1.83;;;18.80;99.90;;;;;;4978097;28;20994;-68
2022/11/01 12:04:44;;;;;;;5.07;1.80;;;18.90;99.90;;;;;;4969040;28;20446;-68
2022/11/01 12:07:26;;;;;;;8.13;2.00;;;18.90;99.90;;;;;;4979849;28;20458;-68
2022/11/01 12:09:52;;;;;;;4.43;2.03;;;18.80;99.90;;;;;;4983127;28;20569;-68
2022/11/01 12:12:31;;;;;;;3.27;1.57;;;18.70;99.90;;;;;;4986412;28;20952;-69
2022/11/01 12:14:58;;;;;;;7.40;2.27;;;18.30;99.90;;;;;;4995128;28;21008;-69
2022/11/01 12:17:24;;;;;;;4.60;1.70;;;18.20;99.90;;;;;;4972583;28;21259;-69
2022/11/01 12:20:18;;;;;;;5.03;1.80;;;18.10;99.90;;;;;;4981318;28;20465;-68
2022/11/01 12:22:49;;;;;;;3.27;1.80;;;18.20;99.90;;;;;;4971202;28;20282;-71
2022/11/01 12:25:21;;;;;;;4.23;1.50;;;18.30;99.90;;;;;;4990123;28;20490;-69
2022/11/01 12:28:00;;;;;;;7.30;2.03;;;18.70;99.90;;;;;;4990933;28;20477;-68
2022/11/01 12:30:29;;;;;;;3.60;1.90;;;19.30;99.90;;;;;;4983600;28;20563;-68
2022/11/01 12:33:23;;;;;;;6.77;1.93;;;19.60;99.90;;;;;;4987375;28;20425;-68
2022/11/01 12:35:53;;;;;;;4.03;1.67;;;19.50;99.90;;;;;;4972525;28;20583;-68
2022/11/01 12:38:41;;;;;;;3.70;1.63;;;19.20;99.90;;;;;;4961735;28;20477;-68
2022/11/01 12:41:29;;;;;;;3.20;1.80;;;19.30;99.90;;;;;;4967715;28;20476;-68
2022/11/01 12:44:04;;;;;;;5.47;2.57;;;19.40;99.90;;;;;;5001127;28;20415;-68
2022/11/01 12:47:05;;;;;;;3.50;1.90;;;19.80;99.90;;;;;;5001707;28;20968;-68
2022/11/01 12:49:41;;;;;;;5.77;2.57;;;20.30;99.90;;;;;;4975241;28;20506;-68
2022/11/01 12:52:24;;;;;;;8.67;3.97;;;20.40;99.90;;;;;;5002338;28;20989;-67
2022/11/01 12:55:19;;;;;;;5.23;2.23;;;20.00;99.90;;;;;;4999363;28;20557;-68
2022/11/01 12:57:44;;;;;;;3.47;2.20;;;19.70;99.90;;;;;;5008823;28;20469;-68
2022/11/01 13:00:19;;;;;;;3.83;2.13;;;19.50;99.90;;;;;;4989408;28;20513;-67
2022/11/01 13:03:00;;;;;;;3.90;1.90;;;19.30;99.90;;;;;;4974856;28;20265;-67